sensor_id;sensor_type;location;lat;lon;timestamp;pressure;altitude;pressure_sealevel;temperature;humidity
23679;BME280;12016;51.668;6.874;2023-03-14T00:04:38;98800.50;;;13.16;66.10
23679;BME280;12016;51.668;6.874;2023-03-14T00:10:40;98750.78;;;12.77;66.26
23679;BME280;12016;51.668;6.874;2023-03-14T00:16:45;98598.69;;;12.07;65.52
23679;BME280;12016;51.668;6.874;2023-03-14T00:22:47;98760.38;;;13.18;66.03
23679;BME280;12016;51.668;6.874;2023-03-14T00:28:53;98632.09;;;12.40;65.70
23679;BME280;12016;51.668;6.874;2023-03-14T00:34:56;98734.13;;;13.26;65.42
23679;BME280;12016;51.668;6.874;2023-03-14T00:41:09;98722.91;;;13.20;65.70
23679;BME280;12016;51.668;6.874;2023-03-14T00:47:12;98722.38;;;12.97;65.54
23679;BME280;12016;51.668;6.874;2023-03-14T00:53:16;98692.41;;;12.62;67.30
23679;BME280;12016;51.668;6.874;2023-03-14T00:59:19;98592.38;;;11.49;68.18
23679;BME280;12016;51.668;6.874;2023-03-14T01:05:22;98416.44;;;10.63;68.95
23679;BME280;12016;51.668;6.874;2023-03-14T01:11:30;98764.78;;;12.42;71.69
23679;BME280;12016;51.668;6.874;2023-03-14T01:17:33;98599.09;;;10.95;74.31
23679;BME280;12016;51.668;6.874;2023-03-14T01:23:36;98680.56;;;11.15;73.52
23679;BME280;12016;51.668;6.874;2023-03-14T01:29:37;98534.44;;;10.31;72.65
23679;BME280;12016;51.668;6.874;2023-03-14T01:35:40;98810.81;;;12.15;71.70
23679;BME280;12016;51.668;6.874;2023-03-14T01:41:42;98712.19;;;11.85;70.25
23679;BME280;12016;51.668;6.874;2023-03-14T01:47:44;98589.69;;;11.12;69.34
23679;BME280;12016;51.668;6.874;2023-03-14T01:53:48;98558.69;;;10.95;69.62
23679;BME280;12016;51.668;6.874;2023-03-14T01:59:59;98751.13;;;12.24;69.43
23679;BME280;12016;51.668;6.874;2023-03-14T02:06:14;98742.41;;;12.01;69.52
23679;BME280;12016;51.668;6.874;2023-03-14T02:12:21;98448.88;;;9.84;69.68
23679;BME280;12016;51.668;6.874;2023-03-14T02:18:38;98704.03;;;11.48;69.93
23679;BME280;12016;51.668;6.874;2023-03-14T02:25:43;98735.63;;;11.77;69.29
23679;BME280;12016;51.668;6.874;2023-03-14T02:31:47;98691.47;;;11.25;69.84
23679;BME280;12016;51.668;6.874;2023-03-14T02:43:56;98558.09;;;10.45;69.83
23679;BME280;12016;51.668;6.874;2023-03-14T02:50:02;98760.66;;;11.48;70.06
23679;BME280;12016;51.668;6.874;2023-03-14T02:56:05;98556.41;;;10.33;69.74
23679;BME280;12016;51.668;6.874;2023-03-14T03:02:08;98662.75;;;10.50;70.20
23679;BME280;12016;51.668;6.874;2023-03-14T03:08:10;98602.19;;;10.63;70.10
23679;BME280;12016;51.668;6.874;2023-03-14T03:14:13;98749.72;;;11.67;70.17
23679;BME280;12016;51.668;6.874;2023-03-14T03:20:15;98749.59;;;11.56;70.60
23679;BME280;12016;51.668;6.874;2023-03-14T03:26:17;98547.06;;;10.27;70.08
23679;BME280;12016;51.668;6.874;2023-03-14T03:32:19;98719.78;;;11.42;70.44
23679;BME280;12016;51.668;6.874;2023-03-14T03:38:21;98681.28;;;11.45;70.55
23679;BME280;12016;51.668;6.874;2023-03-14T03:44:25;98529.63;;;10.44;69.67
23679;BME280;12016;51.668;6.874;2023-03-14T03:50:27;98705.59;;;11.78;69.62
23679;BME280;12016;51.668;6.874;2023-03-14T03:56:29;98585.09;;;10.82;69.95
23679;BME280;12016;51.668;6.874;2023-03-14T04:02:32;98591.84;;;10.69;69.48
23679;BME280;12016;51.668;6.874;2023-03-14T04:08:34;98573.28;;;10.90;69.62
23679;BME280;12016;51.668;6.874;2023-03-14T04:14:36;98724.16;;;11.87;69.71
23679;BME280;12016;51.668;6.874;2023-03-14T04:20:56;98578.91;;;11.12;69.30
23679;BME280;12016;51.668;6.874;2023-03-14T04:27:07;98701.13;;;11.97;69.03
23679;BME280;12016;51.668;6.874;2023-03-14T04:33:09;98461.19;;;10.45;68.77
23679;BME280;12016;51.668;6.874;2023-03-14T04:39:18;98150.66;;;8.42;68.49
23679;BME280;12016;51.668;6.874;2023-03-14T04:45:28;98490.63;;;10.61;69.41
23679;BME280;12016;51.668;6.874;2023-03-14T04:51:33;98456.66;;;10.49;69.78
23679;BME280;12016;51.668;6.874;2023-03-14T04:57:35;98487.56;;;10.66;69.77
23679;BME280;12016;51.668;6.874;2023-03-14T05:03:37;98588.38;;;10.98;71.10
23679;BME280;12016;51.668;6.874;2023-03-14T05:09:59;98630.50;;;11.14;71.35
23679;BME280;12016;51.668;6.874;2023-03-14T05:16:23;98486.31;;;10.00;72.34
23679;BME280;12016;51.668;6.874;2023-03-14T05:22:25;98655.28;;;11.26;73.08
23679;BME280;12016;51.668;6.874;2023-03-14T05:28:57;98605.28;;;10.39;76.00
23679;BME280;12016;51.668;6.874;2023-03-14T05:35:09;98661.63;;;10.28;81.94
23679;BME280;12016;51.668;6.874;2023-03-14T05:41:27;98256.34;;;7.37;84.09
23679;BME280;12016;51.668;6.874;2023-03-14T05:47:45;98411.50;;;8.19;84.51
23679;BME280;12016;51.668;6.874;2023-03-14T05:54:06;98508.50;;;8.99;84.61
23679;BME280;12016;51.668;6.874;2023-03-14T06:00:20;98647.94;;;9.68;84.35
23679;BME280;12016;51.668;6.874;2023-03-14T06:06:47;98513.66;;;9.07;84.18
23679;BME280;12016;51.668;6.874;2023-03-14T06:12:50;98656.00;;;9.91;85.03
23679;BME280;12016;51.668;6.874;2023-03-14T06:18:52;98076.16;;;6.21;84.51
23679;BME280;12016;51.668;6.874;2023-03-14T06:24:56;98323.53;;;7.86;84.69
23679;BME280;12016;51.668;6.874;2023-03-14T06:31:00;98655.19;;;10.10;85.09
23679;BME280;12016;51.668;6.874;2023-03-14T06:37:07;98477.34;;;8.94;85.35
23679;BME280;12016;51.668;6.874;2023-03-14T06:43:08;98562.94;;;9.60;85.42
23679;BME280;12016;51.668;6.874;2023-03-14T06:49:13;98644.66;;;10.24;85.26
23679;BME280;12016;51.668;6.874;2023-03-14T06:55:16;98645.84;;;10.27;85.07
23679;BME280;12016;51.668;6.874;2023-03-14T07:01:25;98481.88;;;9.36;84.74
23679;BME280;12016;51.668;6.874;2023-03-14T07:07:29;98343.06;;;8.25;84.00
23679;BME280;12016;51.668;6.874;2023-03-14T07:13:30;98626.56;;;10.21;84.54
23679;BME280;12016;51.668;6.874;2023-03-14T07:19:37;98662.78;;;10.54;84.25
23679;BME280;12016;51.668;6.874;2023-03-14T07:25:42;98324.06;;;8.34;84.13
23679;BME280;12016;51.668;6.874;2023-03-14T07:31:44;98489.78;;;9.25;85.06
23679;BME280;12016;51.668;6.874;2023-03-14T07:37:51;98175.44;;;7.28;84.44
23679;BME280;12016;51.668;6.874;2023-03-14T07:44:00;98262.72;;;8.10;85.15
23679;BME280;12016;51.668;6.874;2023-03-14T07:50:04;98693.75;;;10.67;85.85
23679;BME280;12016;51.668;6.874;2023-03-14T07:56:06;98479.19;;;9.58;85.50
23679;BME280;12016;51.668;6.874;2023-03-14T08:02:11;98485.84;;;9.42;84.81
23679;BME280;12016;51.668;6.874;2023-03-14T08:08:13;98690.81;;;11.05;84.38
23679;BME280;12016;51.668;6.874;2023-03-14T08:14:15;98414.34;;;9.34;83.97
23679;BME280;12016;51.668;6.874;2023-03-14T08:20:17;98617.38;;;10.52;82.87
23679;BME280;12016;51.668;6.874;2023-03-14T08:26:20;98699.84;;;11.20;81.95
23679;BME280;12016;51.668;6.874;2023-03-14T08:32:21;98608.47;;;10.74;81.55
23679;BME280;12016;51.668;6.874;2023-03-14T08:38:25;98700.81;;;11.35;81.12
23679;BME280;12016;51.668;6.874;2023-03-14T08:44:27;98553.47;;;10.46;80.66
23679;BME280;12016;51.668;6.874;2023-03-14T08:50:28;97867.84;;;5.74;80.64
23679;BME280;12016;51.668;6.874;2023-03-14T08:56:30;98717.56;;;11.51;81.45
23679;BME280;12016;51.668;6.874;2023-03-14T09:02:32;98744.38;;;11.10;83.16
23679;BME280;12016;51.668;6.874;2023-03-14T09:08:34;98597.53;;;9.20;84.20
23679;BME280;12016;51.668;6.874;2023-03-14T09:14:38;98082.97;;;5.56;84.25
23679;BME280;12016;51.668;6.874;2023-03-14T09:20:40;98808.28;;;9.80;84.11
23679;BME280;12016;51.668;6.874;2023-03-14T09:26:42;98690.50;;;8.89;84.21
23679;BME280;12016;51.668;6.874;2023-03-14T09:32:44;98888.34;;;10.06;84.09
23679;BME280;12016;51.668;6.874;2023-03-14T09:38:46;98933.63;;;10.04;83.79
23679;BME280;12016;51.668;6.874;2023-03-14T09:44:57;98946.84;;;10.28;83.32
23679;BME280;12016;51.668;6.874;2023-03-14T09:51:05;98763.84;;;8.93;82.20
23679;BME280;12016;51.668;6.874;2023-03-14T09:57:13;99016.09;;;9.96;81.54
23679;BME280;12016;51.668;6.874;2023-03-14T10:03:25;99043.97;;;9.73;82.32
23679;BME280;12016;51.668;6.874;2023-03-14T10:09:28;98771.94;;;7.75;82.18
23679;BME280;12016;51.668;6.874;2023-03-14T10:15:32;99098.06;;;9.71;81.82
23679;BME280;12016;51.668;6.874;2023-03-14T10:21:52;99138.34;;;9.40;79.83
23679;BME280;12016;51.668;6.874;2023-03-14T10:27:55;99111.44;;;8.44;78.42
23679;BME280;12016;51.668;6.874;2023-03-14T10:34:04;99211.91;;;8.83;76.92
23679;BME280;12016;51.668;6.874;2023-03-14T10:40:13;99067.97;;;7.77;77.02
23679;BME280;12016;51.668;6.874;2023-03-14T10:46:18;99162.63;;;8.39;76.45
23679;BME280;12016;51.668;6.874;2023-03-14T10:52:46;99202.31;;;8.33;75.63
23679;BME280;12016;51.668;6.874;2023-03-14T10:59:04;99337.09;;;9.24;75.82
23679;BME280;12016;51.668;6.874;2023-03-14T11:05:21;99319.06;;;8.76;73.43
23679;BME280;12016;51.668;6.874;2023-03-14T11:11:30;99216.69;;;8.16;73.47
23679;BME280;12016;51.668;6.874;2023-03-14T11:17:42;99163.19;;;7.63;72.68
23679;BME280;12016;51.668;6.874;2023-03-14T11:30:19;99460.25;;;8.77;72.58
23679;BME280;12016;51.668;6.874;2023-03-14T11:36:38;99169.16;;;6.64;73.03
23679;BME280;12016;51.668;6.874;2023-03-14T11:42:43;99501.84;;;9.16;72.54
23679;BME280;12016;51.668;6.874;2023-03-14T11:49:10;99448.13;;;9.28;70.86
23679;BME280;12016;51.668;6.874;2023-03-14T11:55:24;99531.03;;;9.99;69.33
23679;BME280;12016;51.668;6.874;2023-03-14T12:01:35;99345.72;;;8.81;68.56
23679;BME280;12016;51.668;6.874;2023-03-14T12:14:36;99568.94;;;10.18;68.01
23679;BME280;12016;51.668;6.874;2023-03-14T12:20:39;99500.69;;;8.72;68.64
23679;BME280;12016;51.668;6.874;2023-03-14T12:26:55;99245.34;;;6.29;72.48
23679;BME280;12016;51.668;6.874;2023-03-14T12:45:25;99676.22;;;9.75;70.45
23679;BME280;12016;51.668;6.874;2023-03-14T12:51:38;99478.06;;;8.81;69.35
23679;BME280;12016;51.668;6.874;2023-03-14T13:04:04;99415.72;;;7.60;68.54
23679;BME280;12016;51.668;6.874;2023-03-14T13:16:23;99175.53;;;6.22;65.66
23679;BME280;12016;51.668;6.874;2023-03-14T13:22:27;99257.44;;;7.23;64.00
23679;BME280;12016;51.668;6.874;2023-03-14T13:28:30;99691.84;;;10.63;62.51
23679;BME280;12016;51.668;6.874;2023-03-14T13:34:34;99710.22;;;10.36;61.62
23679;BME280;12016;51.668;6.874;2023-03-14T13:40:36;99363.16;;;7.88;54.17
23679;BME280;12016;51.668;6.874;2023-03-14T13:46:38;99720.16;;;9.25;53.39
23679;BME280;12016;51.668;6.874;2023-03-14T13:52:40;99849.19;;;10.41;52.71
23679;BME280;12016;51.668;6.874;2023-03-14T13:58:42;99589.88;;;9.31;51.72
23679;BME280;12016;51.668;6.874;2023-03-14T14:04:46;99702.53;;;11.79;47.16
23679;BME280;12016;51.668;6.874;2023-03-14T14:10:49;99881.72;;;19.31;33.97
23679;BME280;12016;51.668;6.874;2023-03-14T14:16:53;99888.94;;;20.05;32.91
23679;BME280;12016;51.668;6.874;2023-03-14T14:22:56;99861.03;;;18.63;33.78
23679;BME280;12016;51.668;6.874;2023-03-14T14:29:04;99800.03;;;16.60;33.29
23679;BME280;12016;51.668;6.874;2023-03-14T14:35:10;99951.19;;;17.49;35.72
23679;BME280;12016;51.668;6.874;2023-03-14T14:41:27;99947.97;;;17.88;32.91
23679;BME280;12016;51.668;6.874;2023-03-14T14:47:29;99979.19;;;19.98;29.15
23679;BME280;12016;51.668;6.874;2023-03-14T14:53:42;99987.28;;;20.26;30.57
23679;BME280;12016;51.668;6.874;2023-03-14T14:59:44;99802.28;;;17.61;30.81
23679;BME280;12016;51.668;6.874;2023-03-14T15:05:49;100039.97;;;18.85;31.89
23679;BME280;12016;51.668;6.874;2023-03-14T15:11:51;99692.69;;;16.40;29.04
23679;BME280;12016;51.668;6.874;2023-03-14T15:17:53;100036.34;;;16.42;30.13
23679;BME280;12016;51.668;6.874;2023-03-14T15:23:55;99822.34;;;12.97;32.15
23679;BME280;12016;51.668;6.874;2023-03-14T15:29:58;100113.53;;;14.00;34.04
23679;BME280;12016;51.668;6.874;2023-03-14T15:36:00;100117.50;;;13.43;34.60
23679;BME280;12016;51.668;6.874;2023-03-14T15:42:03;99681.50;;;10.41;36.96
23679;BME280;12016;51.668;6.874;2023-03-14T15:48:04;99553.59;;;8.71;34.40
23679;BME280;12016;51.668;6.874;2023-03-14T15:54:11;99755.03;;;9.87;34.89
23679;BME280;12016;51.668;6.874;2023-03-14T16:00:18;99601.69;;;8.64;35.56
23679;BME280;12016;51.668;6.874;2023-03-14T16:06:21;100199.53;;;11.97;35.47
23679;BME280;12016;51.668;6.874;2023-03-14T16:12:23;100230.28;;;11.09;34.82
23679;BME280;12016;51.668;6.874;2023-03-14T16:18:33;100235.84;;;10.84;36.11
23679;BME280;12016;51.668;6.874;2023-03-14T16:24:35;100258.97;;;10.55;36.53
23679;BME280;12016;51.668;6.874;2023-03-14T16:30:39;99836.38;;;7.42;38.22
23679;BME280;12016;51.668;6.874;2023-03-14T16:36:44;100280.44;;;10.17;39.46
23679;BME280;12016;51.668;6.874;2023-03-14T16:42:48;100223.56;;;9.12;39.79
23679;BME280;12016;51.668;6.874;2023-03-14T16:49:10;100301.25;;;9.82;40.00
23679;BME280;12016;51.668;6.874;2023-03-14T16:55:11;100127.59;;;8.35;39.99
23679;BME280;12016;51.668;6.874;2023-03-14T17:01:15;100340.28;;;9.45;40.13
23679;BME280;12016;51.668;6.874;2023-03-14T17:07:18;99834.66;;;5.97;40.85
23679;BME280;12016;51.668;6.874;2023-03-14T17:13:23;100375.19;;;9.19;41.78
23679;BME280;12016;51.668;6.874;2023-03-14T17:19:26;99963.31;;;6.40;42.60
23679;BME280;12016;51.668;6.874;2023-03-14T17:25:28;100443.38;;;9.01;42.96
23679;BME280;12016;51.668;6.874;2023-03-14T17:31:29;100316.25;;;8.21;43.29
23679;BME280;12016;51.668;6.874;2023-03-14T17:37:31;100368.34;;;8.43;43.78
23679;BME280;12016;51.668;6.874;2023-03-14T17:43:33;100444.84;;;8.85;45.07
23679;BME280;12016;51.668;6.874;2023-03-14T17:49:34;99951.88;;;5.21;45.07
23679;BME280;12016;51.668;6.874;2023-03-14T17:55:36;100148.81;;;6.71;44.87
23679;BME280;12016;51.668;6.874;2023-03-14T18:01:38;100175.00;;;6.74;45.54
23679;BME280;12016;51.668;6.874;2023-03-14T18:07:41;100399.00;;;7.56;44.81
23679;BME280;12016;51.668;6.874;2023-03-14T18:13:43;100256.44;;;6.82;44.57
23679;BME280;12016;51.668;6.874;2023-03-14T18:19:45;100135.00;;;6.01;44.98
23679;BME280;12016;51.668;6.874;2023-03-14T18:25:48;100254.88;;;6.40;45.74
23679;BME280;12016;51.668;6.874;2023-03-14T18:31:50;100352.81;;;7.23;45.51
23679;BME280;12016;51.668;6.874;2023-03-14T18:37:52;100543.09;;;8.41;45.46
23679;BME280;12016;51.668;6.874;2023-03-14T18:43:54;99683.41;;;2.43;45.71
23679;BME280;12016;51.668;6.874;2023-03-14T18:49:55;100545.84;;;7.73;45.78
23679;BME280;12016;51.668;6.874;2023-03-14T18:55:58;100631.34;;;8.15;46.33
23679;BME280;12016;51.668;6.874;2023-03-14T19:02:00;100547.50;;;7.69;47.11
23679;BME280;12016;51.668;6.874;2023-03-14T19:08:02;100597.97;;;7.94;47.82
23679;BME280;12016;51.668;6.874;2023-03-14T19:14:05;100627.59;;;8.03;49.20
23679;BME280;12016;51.668;6.874;2023-03-14T19:20:07;100417.63;;;6.33;48.55
23679;BME280;12016;51.668;6.874;2023-03-14T19:26:10;100646.44;;;7.84;48.39
23679;BME280;12016;51.668;6.874;2023-03-14T19:32:11;100657.06;;;7.75;48.26
23679;BME280;12016;51.668;6.874;2023-03-14T19:38:14;100405.09;;;5.96;48.69
23679;BME280;12016;51.668;6.874;2023-03-14T19:44:17;100675.28;;;7.60;50.60
23679;BME280;12016;51.668;6.874;2023-03-14T19:50:21;100295.50;;;4.97;49.45
23679;BME280;12016;51.668;6.874;2023-03-14T19:56:23;100661.38;;;7.25;50.13
23679;BME280;12016;51.668;6.874;2023-03-14T20:02:25;100589.25;;;6.59;50.01
23679;BME280;12016;51.668;6.874;2023-03-14T20:08:30;100507.16;;;5.74;50.50
23679;BME280;12016;51.668;6.874;2023-03-14T20:14:33;100567.50;;;6.04;51.49
23679;BME280;12016;51.668;6.874;2023-03-14T20:20:39;100706.03;;;6.73;51.79
23679;BME280;12016;51.668;6.874;2023-03-14T20:26:41;100530.53;;;5.39;52.36
23679;BME280;12016;51.668;6.874;2023-03-14T20:32:44;100679.91;;;6.18;52.56
23679;BME280;12016;51.668;6.874;2023-03-14T20:38:46;100743.31;;;6.41;52.44
23679;BME280;12016;51.668;6.874;2023-03-14T20:44:54;100740.25;;;6.29;52.17
23679;BME280;12016;51.668;6.874;2023-03-14T20:50:57;100428.97;;;4.34;53.91
23679;BME280;12016;51.668;6.874;2023-03-14T20:57:02;100639.38;;;5.53;53.38
23679;BME280;12016;51.668;6.874;2023-03-14T21:03:03;100601.16;;;5.23;54.07
23679;BME280;12016;51.668;6.874;2023-03-14T21:09:08;100754.56;;;6.14;53.86
23679;BME280;12016;51.668;6.874;2023-03-14T21:15:10;100668.22;;;5.56;54.26
23679;BME280;12016;51.668;6.874;2023-03-14T21:21:15;100757.72;;;5.92;55.24
23679;BME280;12016;51.668;6.874;2023-03-14T21:27:17;100748.28;;;5.66;55.62
23679;BME280;12016;51.668;6.874;2023-03-14T21:33:20;100780.34;;;5.66;55.73
23679;BME280;12016;51.668;6.874;2023-03-14T21:39:21;100564.47;;;4.27;55.99
23679;BME280;12016;51.668;6.874;2023-03-14T21:45:25;100781.97;;;5.62;55.75
23679;BME280;12016;51.668;6.874;2023-03-14T21:51:27;100777.41;;;5.62;56.71
23679;BME280;12016;51.668;6.874;2023-03-14T21:57:31;100702.97;;;5.12;56.35
23679;BME280;12016;51.668;6.874;2023-03-14T22:03:34;100694.84;;;5.32;56.32
23679;BME280;12016;51.668;6.874;2023-03-14T22:09:38;100780.78;;;5.78;56.26
23679;BME280;12016;51.668;6.874;2023-03-14T22:15:44;100694.31;;;5.30;55.40
23679;BME280;12016;51.668;6.874;2023-03-14T22:21:47;100494.75;;;4.05;55.62
23679;BME280;12016;51.668;6.874;2023-03-14T22:27:50;100788.09;;;6.01;55.92
23679;BME280;12016;51.668;6.874;2023-03-14T22:33:52;100647.63;;;5.22;55.36
23679;BME280;12016;51.668;6.874;2023-03-14T22:39:54;100335.66;;;3.12;55.20
23679;BME280;12016;51.668;6.874;2023-03-14T22:46:06;100804.41;;;6.34;55.59
23679;BME280;12016;51.668;6.874;2023-03-14T22:52:08;100195.50;;;2.48;55.49
23679;BME280;12016;51.668;6.874;2023-03-14T22:58:10;100835.84;;;6.18;55.03
23679;BME280;12016;51.668;6.874;2023-03-14T23:04:11;100570.94;;;4.06;56.89
23679;BME280;12016;51.668;6.874;2023-03-14T23:10:13;100711.06;;;4.37;61.17
23679;BME280;12016;51.668;6.874;2023-03-14T23:16:17;100827.22;;;4.84;64.06
23679;BME280;12016;51.668;6.874;2023-03-14T23:22:20;100867.84;;;4.60;74.16
23679;BME280;12016;51.668;6.874;2023-03-14T23:28:22;100371.16;;;1.55;73.09
23679;BME280;12016;51.668;6.874;2023-03-14T23:34:24;100449.34;;;2.20;72.01
23679;BME280;12016;51.668;6.874;2023-03-14T23:40:26;100769.75;;;4.27;73.18
23679;BME280;12016;51.668;6.874;2023-03-14T23:46:28;100857.44;;;4.59;73.26
23679;BME280;12016;51.668;6.874;2023-03-14T23:52:31;100697.88;;;3.56;73.63
23679;BME280;12016;51.668;6.874;2023-03-14T23:58:33;100906.25;;;4.59;73.53
